Time;durP1;ratioP1;P1;durP2;ratioP2;P2;SDS_P1;SDS_P2;PMS_P1;PMS_P2;Temp;Humidity;BMP_temperature;BMP_pressure;BME280_temperature;BME280_humidity;BME280_pressure;Samples;Min_cycle;Max_cycle;Signal;HPM_P1;HPM_P2
2022/01/01 00:00:16;;;;;;;15.10;8.10;;;17.90;60.30;16.90;101729.00;;;;5002240;28;20041;-70
2022/01/01 00:03:02;;;;;;;15.98;7.72;;;18.00;60.40;16.90;101730.00;;;;5017021;28;20038;-70
2022/01/01 00:05:48;;;;;;;14.38;8.52;;;18.00;60.40;16.90;101726.00;;;;5015858;28;20038;-70
2022/01/01 00:08:34;;;;;;;13.38;7.57;;;18.00;60.30;16.90;101721.00;;;;5018788;28;20126;-70
2022/01/01 00:11:21;;;;;;;14.15;7.53;;;17.90;60.30;17.00;101719.00;;;;5017444;28;20490;-70
2022/01/01 00:14:07;;;;;;;16.05;8.35;;;18.00;60.40;17.00;101729.00;;;;5015336;28;20041;-70
2022/01/01 00:16:53;;;;;;;16.42;8.50;;;18.00;60.30;17.00;101722.00;;;;5001206;28;20102;-70
2022/01/01 00:19:39;;;;;;;16.35;8.20;;;18.00;60.30;17.00;101731.00;;;;5023068;28;20037;-70
2022/01/01 00:22:25;;;;;;;16.27;8.02;;;18.00;60.30;17.00;101729.00;;;;5008422;28;20045;-70
2022/01/01 00:25:13;;;;;;;20.75;9.52;;;18.00;60.30;16.90;101727.00;;;;5016217;28;20052;-70
2022/01/01 00:27:59;;;;;;;16.00;8.57;;;18.00;60.30;17.00;101737.00;;;;4987124;28;20049;-70
2022/01/01 00:30:45;;;;;;;15.35;8.20;;;18.00;60.30;16.90;101736.00;;;;5025432;28;20060;-70
2022/01/01 00:33:31;;;;;;;15.73;8.27;;;17.90;60.20;16.90;101738.00;;;;5013930;28;20649;-69
2022/01/01 00:36:17;;;;;;;16.88;8.70;;;18.00;60.30;16.90;101737.00;;;;5024352;28;20041;-70
2022/01/01 00:39:04;;;;;;;16.38;8.70;;;18.00;60.30;16.90;101733.00;;;;5008108;28;20033;-70
2022/01/01 00:41:50;;;;;;;17.63;8.73;;;18.00;60.30;16.90;101733.00;;;;5009900;28;20048;-70
2022/01/01 00:44:36;;;;;;;16.27;8.90;;;18.00;60.30;16.90;101737.00;;;;5014374;28;20056;-70
2022/01/01 00:47:22;;;;;;;15.13;8.85;;;18.00;60.30;17.00;101745.00;;;;5016511;28;20281;-70
2022/01/01 00:50:09;;;;;;;16.30;8.68;;;18.00;60.30;16.90;101743.00;;;;5015951;28;20526;-70
2022/01/01 00:52:55;;;;;;;15.75;8.63;;;18.00;60.30;16.90;101750.00;;;;5016211;28;20037;-70
2022/01/01 00:55:41;;;;;;;16.30;8.52;;;18.00;60.30;16.90;101737.00;;;;5015713;28;20476;-70
2022/01/01 00:58:27;;;;;;;18.80;8.85;;;18.00;60.30;16.90;101748.00;;;;4997319;28;21797;-70
2022/01/01 01:01:14;;;;;;;17.33;8.73;;;18.00;60.30;16.90;101767.00;;;;4998690;28;20437;-70
2022/01/01 01:04:00;;;;;;;16.40;9.15;;;18.00;60.30;16.90;101767.00;;;;5012993;28;20137;-70
2022/01/01 01:06:46;;;;;;;17.55;8.93;;;18.00;60.30;17.00;101761.00;;;;5017436;28;20047;-70
2022/01/01 01:09:32;;;;;;;17.88;9.20;;;18.00;60.30;17.00;101772.00;;;;5018740;28;20549;-70
2022/01/01 01:12:24;;;;;;;22.02;9.35;;;18.00;60.30;17.00;101760.00;;;;5020952;28;20064;-70
2022/01/01 01:15:17;;;;;;;15.27;8.93;;;18.00;60.30;16.90;101755.00;;;;5016756;28;20040;-70
2022/01/01 01:18:06;;;;;;;15.65;8.65;;;18.00;60.30;17.00;101763.00;;;;4998866;28;20052;-70
2022/01/01 01:20:52;;;;;;;19.98;8.68;;;18.00;60.20;16.90;101768.00;;;;5019521;28;20068;-70
2022/01/01 01:23:39;;;;;;;20.67;9.63;;;18.00;60.20;17.00;101766.00;;;;4999815;28;20038;-70
2022/01/01 01:26:28;;;;;;;17.98;8.77;;;18.00;60.30;16.90;101773.00;;;;5012744;28;20041;-70
2022/01/01 01:29:14;;;;;;;17.02;8.73;;;18.00;60.30;16.90;101778.00;;;;5017081;28;20052;-70
2022/01/01 01:32:00;;;;;;;16.33;9.35;;;18.00;60.20;16.90;101778.00;;;;5015870;28;20041;-70
2022/01/01 01:34:46;;;;;;;19.85;8.98;;;18.00;60.20;16.90;101784.00;;;;5017346;28;20121;-70
2022/01/01 01:37:33;;;;;;;15.52;9.02;;;18.00;60.20;16.90;101777.00;;;;5016716;28;20042;-70
2022/01/01 01:40:19;;;;;;;16.33;9.80;;;18.00;60.30;16.90;101773.00;;;;5016164;28;20038;-70
2022/01/01 01:43:10;;;;;;;16.42;9.45;;;18.00;60.20;16.90;101773.00;;;;5007231;28;20514;-70
2022/01/01 01:46:13;;;;;;;18.65;9.95;;;18.00;60.20;16.90;101781.00;;;;5019296;28;20041;-70
2022/01/01 01:48:59;;;;;;;21.08;10.35;;;17.90;60.10;16.90;101776.00;;;;5016905;28;20049;-70
2022/01/01 01:51:45;;;;;;;16.38;10.48;;;18.00;60.20;16.90;101771.00;;;;5020662;28;20132;-70
2022/01/01 01:54:32;;;;;;;17.85;9.77;;;18.00;60.20;16.90;101777.00;;;;5018163;28;20049;-70
2022/01/01 01:57:19;;;;;;;18.52;9.65;;;18.00;60.20;16.90;101778.00;;;;4999930;28;20514;-70
2022/01/01 02:03:13;;;;;;;23.50;10.30;;;18.00;60.20;16.90;101785.00;;;;5003866;28;20495;-70
2022/01/01 02:05:59;;;;;;;16.38;10.05;;;18.00;60.50;16.90;101778.00;;;;5004626;28;20057;-70
2022/01/01 02:08:49;;;;;;;20.77;10.73;;;17.90;60.10;16.90;101789.00;;;;5004762;28;20036;-70
2022/01/01 02:11:35;;;;;;;17.98;10.20;;;18.00;60.20;16.90;101790.00;;;;4987168;28;20041;-70
2022/01/01 02:14:34;;;;;;;16.45;11.20;;;18.00;60.20;16.90;101780.00;;;;5018459;28;20042;-71
2022/01/01 02:17:31;;;;;;;23.95;11.05;;;18.00;60.20;16.90;101785.00;;;;5014014;28;20080;-70
2022/01/01 02:20:19;;;;;;;18.90;10.30;;;18.00;60.20;16.90;101786.00;;;;5003154;28;20170;-70
2022/01/01 02:23:05;;;;;;;18.35;10.52;;;17.90;60.10;16.90;101788.00;;;;5005464;28;20053;-70
2022/01/01 02:25:53;;;;;;;18.10;10.27;;;17.90;60.10;16.90;101791.00;;;;5006136;28;20056;-70
2022/01/01 02:28:41;;;;;;;17.73;10.55;;;17.90;60.20;16.90;101793.00;;;;5001296;28;21800;-70
2022/01/01 02:31:27;;;;;;;22.17;11.45;;;17.90;60.20;16.90;101786.00;;;;4999088;28;20121;-70
2022/01/01 02:34:13;;;;;;;19.55;10.38;;;17.90;60.20;16.90;101789.00;;;;5005151;28;20038;-70
2022/01/01 02:37:00;;;;;;;19.92;10.95;;;17.90;60.10;16.90;101795.00;;;;5017661;28;20046;-70
2022/01/01 02:39:46;;;;;;;21.60;11.65;;;17.90;60.20;16.90;101794.00;;;;5016179;28;20052;-70
2022/01/01 02:42:32;;;;;;;18.52;11.52;;;18.00;60.20;16.90;101799.00;;;;5021755;28;20052;-69
2022/01/01 02:45:18;;;;;;;19.30;11.65;;;18.00;60.20;16.90;101794.00;;;;5004023;28;20034;-70
2022/01/01 02:48:05;;;;;;;18.05;10.77;;;17.90;60.10;16.90;101784.00;;;;5001735;28;20155;-70
2022/01/01 02:50:52;;;;;;;21.05;11.52;;;17.90;60.10;16.90;101790.00;;;;5004621;28;20089;-70
2022/01/01 02:53:41;;;;;;;20.05;10.75;;;17.90;60.10;16.90;101788.00;;;;5008139;28;20509;-70
2022/01/01 02:56:27;;;;;;;20.52;11.40;;;17.90;60.20;16.90;101780.00;;;;5015308;28;20056;-70
2022/01/01 02:59:14;;;;;;;24.67;12.85;;;17.90;60.10;16.90;101789.00;;;;5021985;28;20053;-70
2022/01/01 03:02:00;;;;;;;16.85;11.02;;;17.90;60.10;16.90;101786.00;;;;5007849;28;20155;-70
2022/01/01 03:04:46;;;;;;;23.23;11.32;;;17.90;60.10;16.90;101795.00;;;;4989803;28;20050;-70
2022/01/01 03:07:34;;;;;;;22.10;12.23;;;17.90;60.10;16.90;101804.00;;;;5018094;28;20059;-70
2022/01/01 03:10:21;;;;;;;19.92;12.82;;;17.90;60.10;16.90;101806.00;;;;5020664;28;20056;-70
2022/01/01 03:13:07;;;;;;;22.45;12.25;;;17.90;60.90;16.90;101811.00;;;;5014417;28;20045;-70
2022/01/01 03:15:53;;;;;;;20.13;10.93;;;17.90;60.20;16.90;101824.00;;;;5019453;28;20077;-70
2022/01/01 03:18:40;;;;;;;22.00;12.95;;;17.90;60.20;16.90;101840.00;;;;5002929;28;20437;-70
2022/01/01 03:21:26;;;;;;;22.27;13.00;;;17.90;60.10;16.90;101844.00;;;;5003307;28;20408;-70
2022/01/01 03:24:12;;;;;;;22.00;14.00;;;17.90;60.20;16.90;101840.00;;;;5023389;28;20125;-70
2022/01/01 03:26:58;;;;;;;26.15;13.18;;;17.90;60.10;16.90;101840.00;;;;5009446;28;20111;-70
2022/01/01 03:29:44;;;;;;;23.45;14.95;;;18.00;60.20;16.90;101830.00;;;;4999987;28;20045;-70
2022/01/01 03:32:31;;;;;;;22.33;12.90;;;18.00;60.20;16.90;101827.00;;;;5015888;28;20044;-70
2022/01/01 03:35:17;;;;;;;22.00;13.48;;;17.90;60.20;16.90;101811.00;;;;5019236;28;20190;-70
2022/01/01 03:38:04;;;;;;;26.27;15.57;;;17.90;60.20;16.90;101821.00;;;;5017698;28;20074;-70
2022/01/01 03:40:50;;;;;;;24.37;14.50;;;17.90;60.20;16.90;101819.00;;;;4984685;28;20069;-70
2022/01/01 03:43:36;;;;;;;24.13;15.18;;;17.90;60.20;16.90;101813.00;;;;5020293;28;20106;-70
2022/01/01 03:46:22;;;;;;;30.30;15.68;;;17.90;60.20;16.90;101810.00;;;;4986534;28;20041;-70
2022/01/01 03:49:08;;;;;;;27.50;15.95;;;17.90;60.10;16.90;101810.00;;;;5008438;28;20045;-70
2022/01/01 03:51:55;;;;;;;25.20;16.02;;;17.90;60.20;16.90;101811.00;;;;5020771;28;20128;-71
2022/01/01 03:54:41;;;;;;;27.15;16.75;;;17.90;60.20;16.90;101815.00;;;;5022189;28;20033;-70
2022/01/01 03:57:27;;;;;;;28.45;16.33;;;17.90;60.20;16.90;101811.00;;;;5015733;28;20482;-69
2022/01/01 04:00:17;;;;;;;29.05;15.23;;;17.90;60.20;16.90;101808.00;;;;5020262;28;20099;-70
2022/01/01 04:03:12;;;;;;;29.08;15.88;;;17.90;60.20;16.90;101804.00;;;;5003977;28;20037;-70
2022/01/01 04:05:58;;;;;;;24.08;14.77;;;17.90;60.20;16.90;101812.00;;;;5004569;28;20056;-70
2022/01/01 04:08:44;;;;;;;28.58;16.23;;;17.90;60.20;16.90;101811.00;;;;4986509;28;20412;-70
2022/01/01 04:11:30;;;;;;;28.52;15.48;;;17.90;60.20;16.90;101816.00;;;;5022603;28;20106;-70
2022/01/01 04:14:16;;;;;;;31.02;17.20;;;17.90;60.20;16.90;101807.00;;;;5019364;28;20474;-70
2022/01/01 04:17:03;;;;;;;28.92;16.85;;;17.90;60.20;16.90;101804.00;;;;5007816;28;20080;-70
2022/01/01 04:19:49;;;;;;;30.08;16.92;;;17.90;60.20;16.90;101795.00;;;;5015450;28;20044;-70
2022/01/01 04:22:35;;;;;;;28.50;16.10;;;17.90;60.20;16.90;101787.00;;;;5017891;28;20479;-70
2022/01/01 04:25:22;;;;;;;35.22;16.92;;;17.90;60.20;16.90;101786.00;;;;5021321;28;20033;-70
2022/01/01 04:28:09;;;;;;;29.40;16.33;;;17.90;60.20;16.90;101788.00;;;;4995139;28;20045;-70
2022/01/01 04:30:55;;;;;;;25.05;15.85;;;17.90;60.20;16.90;101795.00;;;;5024102;28;20049;-70
2022/01/01 04:33:42;;;;;;;34.03;18.10;;;17.90;60.10;16.90;101791.00;;;;5015802;28;20648;-70
2022/01/01 04:36:28;;;;;;;30.98;16.83;;;17.90;60.10;16.90;101811.00;;;;5020553;28;20037;-70
2022/01/01 04:39:15;;;;;;;27.27;17.42;;;17.90;60.10;16.90;101817.00;;;;5018600;28;20143;-70
2022/01/01 04:42:01;;;;;;;29.33;17.60;;;17.90;60.80;16.90;101817.00;;;;5007482;28;20084;-70
2022/01/01 04:44:47;;;;;;;27.98;17.02;;;17.90;60.10;17.00;101824.00;;;;5022057;28;20040;-70
2022/01/01 04:47:33;;;;;;;27.15;16.60;;;17.90;60.10;16.90;101823.00;;;;5015419;28;20426;-70
2022/01/01 04:50:19;;;;;;;27.38;15.95;;;17.90;60.10;17.00;101815.00;;;;5008014;28;20095;-70
2022/01/01 04:53:05;;;;;;;26.02;16.83;;;17.90;60.00;17.00;101810.00;;;;5016943;28;20048;-70
2022/01/01 04:55:52;;;;;;;28.75;17.20;;;18.00;60.10;17.00;101808.00;;;;5015332;28;20463;-71
2022/01/01 04:58:38;;;;;;;28.50;17.27;;;18.00;60.10;17.00;101808.00;;;;5008926;28;20640;-70
2022/01/01 05:01:24;;;;;;;29.70;16.75;;;18.00;60.10;17.00;101811.00;;;;5017891;28;20042;-70
2022/01/01 05:04:11;;;;;;;30.52;18.60;;;18.00;60.00;17.00;101825.00;;;;5014526;28;20051;-70
2022/01/01 05:06:57;;;;;;;30.40;17.33;;;18.00;60.00;17.00;101823.00;;;;4995264;28;20433;-70
2022/01/01 05:09:43;;;;;;;28.42;17.00;;;18.00;60.10;17.00;101832.00;;;;4984919;28;20399;-70
2022/01/01 05:12:29;;;;;;;30.30;17.48;;;18.00;60.00;17.00;101846.00;;;;5000596;28;20041;-70
2022/01/01 05:15:15;;;;;;;31.42;17.60;;;18.00;60.00;17.00;101852.00;;;;5016892;28;20464;-70
2022/01/01 05:18:02;;;;;;;28.15;17.17;;;18.00;60.00;17.00;101851.00;;;;5018590;28;20037;-70
2022/01/01 05:20:48;;;;;;;27.63;16.45;;;18.00;60.00;17.00;101852.00;;;;5002626;28;20129;-70
2022/01/01 05:23:34;;;;;;;30.85;17.58;;;18.00;60.00;17.00;101854.00;;;;5006140;28;20042;-70
2022/01/01 05:26:21;;;;;;;32.28;17.08;;;18.00;60.00;17.00;101844.00;;;;5015937;28;20049;-70
2022/01/01 05:29:07;;;;;;;31.33;17.33;;;18.00;60.00;17.00;101852.00;;;;4985359;28;20049;-70
2022/01/01 05:31:53;;;;;;;29.92;17.15;;;17.90;60.00;17.00;101849.00;;;;5008456;28;20450;-70
2022/01/01 05:34:39;;;;;;;31.27;17.85;;;18.00;60.00;17.00;101847.00;;;;5019334;28;20041;-70
2022/01/01 05:37:25;;;;;;;30.52;17.63;;;17.90;60.00;17.00;101847.00;;;;5009906;28;20046;-70
2022/01/01 05:40:12;;;;;;;25.27;16.50;;;18.00;60.10;17.00;101854.00;;;;5002522;28;20415;-70
2022/01/01 05:42:58;;;;;;;29.05;17.08;;;18.00;60.00;17.00;101860.00;;;;5019028;28;20053;-70
2022/01/01 05:45:44;;;;;;;32.95;17.88;;;18.00;60.00;17.00;101845.00;;;;5020064;28;20486;-70
2022/01/01 05:48:31;;;;;;;23.23;15.27;;;18.00;60.10;17.00;101852.00;;;;5000723;28;20052;-70
2022/01/01 05:51:17;;;;;;;26.30;15.60;;;17.90;60.00;17.00;101855.00;;;;4987519;28;20312;-70
2022/01/01 05:54:03;;;;;;;28.13;16.08;;;18.00;60.00;17.00;101861.00;;;;5018988;28;20067;-70
2022/01/01 05:56:49;;;;;;;27.40;16.08;;;18.00;60.00;17.00;101869.00;;;;5005169;28;20045;-69
2022/01/01 05:59:40;;;;;;;26.45;15.32;;;18.00;60.10;17.00;101862.00;;;;5003394;28;20103;-70
2022/01/01 06:02:26;;;;;;;27.23;16.25;;;18.00;60.00;17.00;101854.00;;;;5017162;28;20038;-70
2022/01/01 06:05:12;;;;;;;28.23;15.95;;;18.00;60.00;17.00;101847.00;;;;5003149;28;20406;-70
2022/01/01 06:07:58;;;;;;;26.55;14.93;;;18.00;60.20;17.00;101839.00;;;;5019814;28;20505;-70
2022/01/01 06:10:45;;;;;;;29.42;15.52;;;18.00;60.00;17.00;101841.00;;;;5018550;28;20490;-70
2022/01/01 06:13:31;;;;;;;28.05;15.93;;;18.00;60.00;17.00;101838.00;;;;5008187;28;20033;-70
2022/01/01 06:16:17;;;;;;;23.75;14.43;;;18.00;60.00;17.00;101845.00;;;;5019320;28;20041;-70
2022/01/01 06:19:03;;;;;;;24.00;14.25;;;18.00;60.00;17.00;101854.00;;;;5001416;28;20079;-70
2022/01/01 06:21:49;;;;;;;25.13;14.43;;;18.00;60.00;17.00;101842.00;;;;5020101;28;20375;-70
2022/01/01 06:24:36;;;;;;;23.65;13.80;;;18.00;60.00;17.00;101853.00;;;;5016850;28;20482;-70
2022/01/01 06:27:22;;;;;;;29.25;15.05;;;18.00;60.00;17.00;101875.00;;;;5019738;28;20041;-70
2022/01/01 06:30:09;;;;;;;24.00;14.73;;;18.00;60.00;17.00;101870.00;;;;5001863;28;20643;-70
2022/01/01 06:32:55;;;;;;;28.80;17.13;;;18.00;60.00;17.00;101865.00;;;;5005832;28;20044;-70
2022/01/01 06:35:42;;;;;;;26.00;13.88;;;18.00;60.00;17.00;101857.00;;;;5017921;28;20063;-70
2022/01/01 06:38:28;;;;;;;24.88;14.90;;;18.00;59.90;17.00;101861.00;;;;4992608;28;20085;-70
2022/01/01 06:41:16;;;;;;;21.40;13.45;;;18.00;59.90;17.00;101870.00;;;;5010700;28;20099;-70
2022/01/01 06:44:02;;;;;;;25.48;14.27;;;18.10;59.90;17.00;101871.00;;;;5018774;28;20037;-70
2022/01/01 06:46:48;;;;;;;21.00;12.73;;;18.00;59.90;17.00;101863.00;;;;5012509;28;20125;-70
2022/01/01 06:49:35;;;;;;;20.27;13.40;;;18.00;59.90;17.00;101872.00;;;;5007130;28;20391;-70
2022/01/01 06:52:21;;;;;;;24.75;13.38;;;18.00;59.90;17.00;101874.00;;;;4990871;28;20657;-70
2022/01/01 06:55:08;;;;;;;25.13;13.73;;;18.00;59.90;17.00;101872.00;;;;5023072;28;20749;-70
2022/01/01 06:57:54;;;;;;;21.88;12.27;;;18.00;59.90;17.00;101879.00;;;;5020383;28;20041;-70
2022/01/01 07:00:40;;;;;;;25.60;13.13;;;18.10;59.90;17.00;101872.00;;;;5017643;28;20147;-70
2022/01/01 07:03:27;;;;;;;22.33;11.95;;;18.10;59.80;17.00;101886.00;;;;5020532;28;20527;-70
2022/01/01 07:06:14;;;;;;;23.52;12.63;;;18.10;59.90;17.00;101878.00;;;;5023226;28;20120;-70
2022/01/01 07:09:01;;;;;;;22.67;12.63;;;18.10;59.90;17.00;101874.00;;;;5021887;28;20498;-70
2022/01/01 07:11:47;;;;;;;28.52;13.57;;;18.10;59.80;17.00;101882.00;;;;4990949;28;20509;-70
2022/01/01 07:14:33;;;;;;;20.02;11.77;;;18.10;59.80;17.00;101879.00;;;;5017698;28;20476;-70
2022/01/01 07:17:19;;;;;;;25.27;12.18;;;18.10;59.90;17.00;101883.00;;;;5022609;28;20612;-70
2022/01/01 07:20:06;;;;;;;21.05;12.00;;;18.10;59.80;17.00;101884.00;;;;5019339;28;20045;-70
2022/01/01 07:22:52;;;;;;;18.93;11.10;;;18.10;59.80;17.00;101889.00;;;;4994060;28;20479;-70
2022/01/01 07:25:39;;;;;;;17.73;11.55;;;18.10;59.80;17.00;101893.00;;;;5002652;28;20049;-70
2022/01/01 07:28:25;;;;;;;19.95;11.00;;;18.10;59.80;17.00;101899.00;;;;5018295;28;20328;-70
2022/01/01 07:31:11;;;;;;;21.48;11.57;;;18.10;59.80;17.00;101894.00;;;;5006612;28;20040;-70
2022/01/01 07:33:57;;;;;;;19.50;10.88;;;18.10;59.80;17.00;101901.00;;;;5000756;28;20053;-70
2022/01/01 07:36:43;;;;;;;20.33;9.98;;;18.10;59.90;17.00;101904.00;;;;5007279;28;20419;-70
2022/01/01 07:39:30;;;;;;;19.05;10.45;;;18.10;59.80;17.00;101913.00;;;;5016099;28;20066;-70
2022/01/01 07:42:16;;;;;;;18.15;11.02;;;18.10;59.90;17.00;101902.00;;;;5002523;28;20518;-70
2022/01/01 07:45:02;;;;;;;21.90;10.55;;;18.10;59.80;17.00;101908.00;;;;5015156;28;20045;-70
2022/01/01 07:47:48;;;;;;;17.17;9.77;;;18.10;59.80;17.00;101913.00;;;;5003702;28;20521;-71
2022/01/01 07:50:35;;;;;;;17.27;9.75;;;18.10;59.90;17.00;101913.00;;;;5024492;28;20043;-70
2022/01/01 07:53:21;;;;;;;16.25;10.38;;;18.10;59.80;17.00;101918.00;;;;5001353;28;20505;-70
2022/01/01 07:56:07;;;;;;;18.17;9.98;;;18.10;59.80;17.00;101926.00;;;;5017222;28;20414;-70
2022/01/01 07:58:53;;;;;;;20.77;8.93;;;18.10;59.80;17.00;101927.00;;;;5014760;28;20064;-70
2022/01/01 08:01:43;;;;;;;22.35;9.27;;;18.10;59.80;17.00;101930.00;;;;5001465;28;20064;-70
2022/01/01 08:04:29;;;;;;;16.17;9.52;;;18.10;59.80;17.00;101941.00;;;;5012964;28;20199;-70
2022/01/01 08:07:15;;;;;;;15.82;8.30;;;18.10;59.80;17.00;101944.00;;;;5001051;28;20048;-70
2022/01/01 08:10:02;;;;;;;13.90;8.65;;;18.10;59.80;17.00;101936.00;;;;5020666;28;20633;-70
2022/01/01 08:12:48;;;;;;;15.57;7.72;;;18.10;59.90;17.00;101938.00;;;;5000261;28;20057;-70
2022/01/01 08:15:34;;;;;;;13.90;7.90;;;18.10;59.80;17.00;101939.00;;;;5002883;28;20127;-69
2022/01/01 08:18:21;;;;;;;16.63;8.02;;;18.10;59.80;17.00;101944.00;;;;5002548;28;20033;-70
2022/01/01 08:21:07;;;;;;;13.63;8.15;;;18.10;59.80;17.00;101946.00;;;;5001093;28;20483;-70
2022/01/01 08:23:54;;;;;;;15.20;7.93;;;18.10;59.80;17.00;101947.00;;;;4998542;28;20674;-70
2022/01/01 08:26:40;;;;;;;17.30;7.57;;;18.10;59.80;17.00;101947.00;;;;5021592;28;20045;-70
2022/01/01 08:29:28;;;;;;;14.50;7.65;;;18.10;59.80;17.00;101946.00;;;;4988388;28;20460;-70
2022/01/01 08:32:14;;;;;;;13.25;8.10;;;18.10;59.80;17.00;101939.00;;;;5020976;28;20041;-70
2022/01/01 08:35:00;;;;;;;14.73;6.97;;;18.10;59.80;17.00;101945.00;;;;5017272;28;20535;-70
2022/01/01 08:37:46;;;;;;;12.23;6.45;;;18.10;59.80;17.00;101933.00;;;;5017734;28;20586;-70
2022/01/01 08:40:33;;;;;;;12.38;6.25;;;18.10;59.80;17.00;101937.00;;;;4999786;28;20086;-70
2022/01/01 08:43:19;;;;;;;14.80;6.95;;;18.10;59.80;17.00;101932.00;;;;5004419;28;20448;-70
2022/01/01 08:46:07;;;;;;;11.48;7.15;;;18.10;59.80;17.00;101949.00;;;;5013537;28;20504;-70
2022/01/01 08:48:53;;;;;;;10.75;5.82;;;18.10;59.80;17.00;101943.00;;;;5015455;28;20596;-70
2022/01/01 08:51:42;;;;;;;15.43;5.72;;;18.10;59.80;17.00;101934.00;;;;5012008;28;20045;-70
2022/01/01 08:54:28;;;;;;;10.98;5.88;;;18.10;59.70;17.00;101943.00;;;;5004912;28;20033;-70
2022/01/01 08:57:16;;;;;;;10.63;5.78;;;18.10;59.70;17.00;101948.00;;;;5022093;28;20466;-70
2022/01/01 09:00:09;;;;;;;13.05;6.07;;;18.10;59.70;17.00;101946.00;;;;5004771;28;20049;-70
2022/01/01 09:02:55;;;;;;;10.27;5.70;;;18.10;59.70;17.00;101944.00;;;;4989461;28;20157;-70
2022/01/01 09:05:41;;;;;;;13.40;5.85;;;18.10;59.70;17.00;101946.00;;;;5016932;28;20475;-69
2022/01/01 09:08:29;;;;;;;12.15;6.38;;;18.10;59.70;17.00;101941.00;;;;4985575;28;20057;-70
2022/01/01 09:11:15;;;;;;;12.77;6.18;;;18.10;59.70;17.00;101939.00;;;;5001189;28;20095;-70
2022/01/01 09:14:01;;;;;;;10.40;5.05;;;18.10;59.70;17.00;101942.00;;;;4990890;28;20217;-70
2022/01/01 09:16:48;;;;;;;14.27;5.20;;;18.10;59.70;17.00;101932.00;;;;5001112;28;20407;-70
2022/01/01 09:19:34;;;;;;;10.95;5.40;;;18.10;59.80;17.00;101930.00;;;;5012862;28;20471;-70
2022/01/01 09:22:20;;;;;;;7.40;4.60;;;18.10;59.80;17.00;101932.00;;;;5004693;28;20395;-69
2022/01/01 09:25:07;;;;;;;10.32;4.75;;;18.10;59.70;17.00;101931.00;;;;5002029;28;20107;-70
2022/01/01 09:27:53;;;;;;;9.77;4.55;;;18.10;59.80;17.00;101930.00;;;;5006039;28;20040;-70
2022/01/01 09:30:39;;;;;;;12.45;4.55;;;18.10;59.70;17.00;101927.00;;;;5003460;28;20111;-69
2022/01/01 09:33:29;;;;;;;7.97;4.57;;;18.10;59.70;17.00;101935.00;;;;5006085;28;20041;-70
2022/01/01 09:36:17;;;;;;;11.07;4.30;;;18.10;59.80;17.00;101930.00;;;;5002131;28;20387;-69
2022/01/01 09:39:05;;;;;;;9.38;4.35;;;18.10;59.70;17.00;101936.00;;;;5016755;28;20041;-70
2022/01/01 09:41:51;;;;;;;8.88;4.10;;;18.10;60.40;17.00;101934.00;;;;4983339;28;20445;-70
2022/01/01 09:44:38;;;;;;;12.90;4.25;;;18.10;59.80;17.00;101932.00;;;;5002681;28;20615;-69
2022/01/01 09:47:24;;;;;;;7.90;3.85;;;18.10;59.70;17.00;101930.00;;;;5002186;28;20048;-70
2022/01/01 09:50:10;;;;;;;8.13;4.38;;;18.10;59.70;17.00;101922.00;;;;5004278;28;20052;-70
2022/01/01 09:52:56;;;;;;;7.05;3.70;;;18.10;59.70;17.00;101919.00;;;;5013287;28;20049;-70
2022/01/01 09:55:43;;;;;;;10.35;3.35;;;18.10;59.70;17.00;101927.00;;;;5012924;28;20076;-70
2022/01/01 09:58:31;;;;;;;10.25;3.75;;;18.10;59.70;17.00;101931.00;;;;5002391;28;20054;-70
2022/01/01 10:01:17;;;;;;;11.27;4.05;;;18.10;59.70;17.00;101939.00;;;;4985866;28;20490;-70
2022/01/01 10:04:12;;;;;;;8.77;4.00;;;18.10;59.70;17.00;101935.00;;;;5015138;28;20052;-70
2022/01/01 10:07:05;;;;;;;9.30;3.72;;;18.10;59.70;17.00;101942.00;;;;5018029;28;20037;-70
2022/01/01 10:09:51;;;;;;;9.52;3.78;;;18.10;59.70;17.00;101942.00;;;;4995835;28;20050;-71
2022/01/01 10:12:40;;;;;;;6.47;3.42;;;18.10;59.70;17.00;101943.00;;;;5004182;28;20120;-70
2022/01/01 10:15:26;;;;;;;7.63;3.70;;;18.10;59.70;17.00;101934.00;;;;4998513;28;20088;-71
2022/01/01 10:18:13;;;;;;;7.15;3.55;;;18.10;59.70;17.00;101940.00;;;;5000659;28;20072;-70
2022/01/01 10:21:11;;;;;;;9.95;4.20;;;18.10;59.60;17.00;101934.00;;;;5016824;28;20048;-70
2022/01/01 10:23:58;;;;;;;8.73;3.60;;;18.10;59.60;17.00;101925.00;;;;4999552;28;20050;-70
2022/01/01 10:29:48;;;;;;;6.97;3.47;;;18.10;59.60;17.00;101923.00;;;;5011697;28;20040;-70
2022/01/01 10:32:35;;;;;;;5.90;2.97;;;18.10;60.30;17.00;101919.00;;;;5003040;28;20498;-70
2022/01/01 10:35:22;;;;;;;7.53;3.45;;;18.10;59.60;17.00;101918.00;;;;5017290;28;20483;-70
2022/01/01 10:38:35;;;;;;;7.68;2.78;;;18.10;59.60;17.00;101918.00;;;;5015034;28;20128;-70
2022/01/01 10:41:21;;;;;;;6.95;3.03;;;18.10;59.60;17.00;101914.00;;;;5008646;28;20055;-71
2022/01/01 10:44:08;;;;;;;8.93;2.72;;;18.00;59.50;16.90;101898.00;;;;5005590;28;20344;-71
2022/01/01 10:46:57;;;;;;;7.07;2.70;;;18.10;59.50;17.00;101885.00;;;;5018991;28;20080;-70
2022/01/01 10:52:33;;;;;;;7.65;2.95;;;18.10;59.50;17.00;101897.00;;;;5021783;28;20041;-70
2022/01/01 10:55:19;;;;;;;8.13;2.60;;;18.10;59.50;16.90;101900.00;;;;5000852;28;20120;-70
2022/01/01 10:58:05;;;;;;;6.57;3.33;;;18.10;59.50;16.90;101894.00;;;;5019177;28;20512;-70
2022/01/01 11:00:52;;;;;;;8.98;3.05;;;18.00;59.50;17.00;101887.00;;;;5007943;28;20045;-70
2022/01/01 11:03:41;;;;;;;9.07;2.60;;;18.10;59.50;17.00;101888.00;;;;5006815;28;20049;-70
2022/01/01 11:06:32;;;;;;;8.52;2.50;;;18.10;59.50;17.00;101891.00;;;;5000438;28;20047;-70
2022/01/01 11:09:18;;;;;;;7.60;2.78;;;18.00;59.50;17.00;101889.00;;;;5002309;28;20048;-70
2022/01/01 11:12:05;;;;;;;9.13;2.45;;;18.10;59.50;17.00;101869.00;;;;4994082;28;20495;-70
2022/01/01 11:14:53;;;;;;;5.82;2.33;;;18.10;59.50;17.00;101860.00;;;;5004631;28;20052;-70
2022/01/01 11:17:40;;;;;;;;;;;18.10;59.50;17.00;101857.00;;;;5005876;28;20060;-71
2022/01/01 11:20:30;;;;;;;10.02;3.03;;;18.10;59.70;16.90;101850.00;;;;5019663;28;19925;-70
2022/01/01 11:23:16;;;;;;;8.68;2.78;;;18.10;59.50;17.00;101850.00;;;;4986501;28;20039;-70
2022/01/01 11:26:03;;;;;;;4.47;2.30;;;18.10;59.50;17.00;101846.00;;;;4988219;28;20038;-70
2022/01/01 11:28:49;;;;;;;6.28;2.35;;;18.10;59.50;16.90;101843.00;;;;5003426;28;20534;-70
2022/01/01 11:31:35;;;;;;;7.80;2.65;;;18.10;59.50;17.00;101837.00;;;;5015817;28;20570;-70
2022/01/01 11:34:21;;;;;;;5.53;2.22;;;18.10;59.50;17.00;101840.00;;;;5006920;28;20288;-70
2022/01/01 11:37:07;;;;;;;5.20;2.95;;;18.10;59.50;17.00;101838.00;;;;5003754;28;20592;-73
2022/01/01 11:39:55;;;;;;;7.97;2.50;;;18.10;59.50;17.00;101834.00;;;;5007225;28;20212;-70
2022/01/01 11:42:45;;;;;;;5.53;2.63;;;18.10;59.50;17.00;101829.00;;;;5013733;28;20068;-70
2022/01/01 11:45:45;;;;;;;10.55;3.10;;;18.10;59.50;17.00;101825.00;;;;4999808;28;20457;-70
2022/01/01 11:48:41;;;;;;;4.93;2.10;;;18.10;59.50;17.00;101826.00;;;;4998249;28;20066;-70
2022/01/01 11:51:50;;;;;;;6.05;2.45;;;18.10;59.50;17.00;101827.00;;;;4986357;28;20056;-70
2022/01/01 11:54:38;;;;;;;7.18;2.45;;;18.10;59.50;17.00;101821.00;;;;5014816;28;20505;-70
2022/01/01 11:57:26;;;;;;;6.00;2.28;;;18.10;59.40;17.00;101810.00;;;;5012677;28;20046;-69
2022/01/01 12:00:14;;;;;;;8.93;2.63;;;18.10;59.50;17.00;101802.00;;;;4998164;28;20539;-70
2022/01/01 12:03:13;;;;;;;6.50;2.63;;;18.10;59.50;17.00;101790.00;;;;5016129;28;20574;-70
2022/01/01 12:06:03;;;;;;;4.43;2.15;;;18.10;59.40;17.00;101796.00;;;;4976767;28;21496;-70
2022/01/01 12:08:50;;;;;;;5.97;2.28;;;18.10;59.50;17.00;101794.00;;;;4976717;28;21906;-70
2022/01/01 12:11:36;;;;;;;5.18;2.50;;;18.10;59.50;17.00;101800.00;;;;5017268;28;20476;-70